sensor_id;sensor_type;location;lat;lon;timestamp;pressure;altitude;pressure_sealevel;temperature;humidity
60974;BME280;46846;51.528;5.076;2023-05-16T00:00:12;101423.47;;;11.53;64.00
60974;BME280;46846;51.528;5.076;2023-05-16T00:02:39;101425.19;;;11.54;64.16
60974;BME280;46846;51.528;5.076;2023-05-16T00:05:04;101425.28;;;11.51;64.04
60974;BME280;46846;51.528;5.076;2023-05-16T00:07:32;101428.84;;;11.50;63.95
60974;BME280;46846;51.528;5.076;2023-05-16T00:09:58;101423.63;;;11.47;64.22
60974;BME280;46846;51.528;5.076;2023-05-16T00:12:23;101429.94;;;11.43;64.19
60974;BME280;46846;51.528;5.076;2023-05-16T00:14:49;101432.56;;;11.44;63.84
60974;BME280;46846;51.528;5.076;2023-05-16T00:17:17;101425.50;;;11.43;63.88
60974;BME280;46846;51.528;5.076;2023-05-16T00:19:45;101433.41;;;11.46;63.88
60974;BME280;46846;51.528;5.076;2023-05-16T00:22:11;101426.28;;;11.47;63.73
60974;BME280;46846;51.528;5.076;2023-05-16T00:24:37;101424.66;;;11.41;63.87
60974;BME280;46846;51.528;5.076;2023-05-16T00:27:02;101422.88;;;11.42;63.74
60974;BME280;46846;51.528;5.076;2023-05-16T00:29:29;101421.28;;;11.36;64.01
60974;BME280;46846;51.528;5.076;2023-05-16T00:31:55;101422.09;;;11.38;63.45
60974;BME280;46846;51.528;5.076;2023-05-16T00:34:20;101422.19;;;11.35;63.54
60974;BME280;46846;51.528;5.076;2023-05-16T00:36:46;101423.00;;;11.37;63.65
60974;BME280;46846;51.528;5.076;2023-05-16T00:39:12;101423.22;;;11.29;63.83
60974;BME280;46846;51.528;5.076;2023-05-16T00:41:37;101425.16;;;11.24;64.10
60974;BME280;46846;51.528;5.076;2023-05-16T00:44:03;101422.50;;;11.24;64.14
60974;BME280;46846;51.528;5.076;2023-05-16T00:46:28;101418.94;;;11.24;63.90
60974;BME280;46846;51.528;5.076;2023-05-16T00:48:53;101431.44;;;11.21;63.87
60974;BME280;46846;51.528;5.076;2023-05-16T00:51:19;101427.09;;;11.17;63.41
60974;BME280;46846;51.528;5.076;2023-05-16T00:53:44;101426.19;;;11.18;63.86
60974;BME280;46846;51.528;5.076;2023-05-16T00:56:10;101423.56;;;11.17;63.65
60974;BME280;46846;51.528;5.076;2023-05-16T00:58:36;101425.38;;;11.15;63.63
60974;BME280;46846;51.528;5.076;2023-05-16T01:01:01;101424.44;;;11.17;63.42
60974;BME280;46846;51.528;5.076;2023-05-16T01:03:30;101436.91;;;11.17;63.96
60974;BME280;46846;51.528;5.076;2023-05-16T01:05:56;101431.69;;;11.12;63.96
60974;BME280;46846;51.528;5.076;2023-05-16T01:08:22;101429.81;;;11.16;62.65
60974;BME280;46846;51.528;5.076;2023-05-16T01:13:44;101428.16;;;11.12;63.42
60974;BME280;46846;51.528;5.076;2023-05-16T01:16:38;101435.38;;;11.06;63.65
60974;BME280;46846;51.528;5.076;2023-05-16T01:19:19;101435.38;;;11.06;63.58
60974;BME280;46846;51.528;5.076;2023-05-16T01:22:02;101425.66;;;11.05;63.46
60974;BME280;46846;51.528;5.076;2023-05-16T01:24:43;101433.59;;;11.07;63.24
60974;BME280;46846;51.528;5.076;2023-05-16T01:27:13;101434.56;;;11.04;63.68
60974;BME280;46846;51.528;5.076;2023-05-16T01:29:39;101427.44;;;11.05;63.50
60974;BME280;46846;51.528;5.076;2023-05-16T01:32:05;101429.34;;;11.00;63.23
60974;BME280;46846;51.528;5.076;2023-05-16T01:34:30;101429.31;;;11.01;63.28
60974;BME280;46846;51.528;5.076;2023-05-16T01:37:00;101434.72;;;10.98;63.23
60974;BME280;46846;51.528;5.076;2023-05-16T01:39:34;101430.34;;;10.96;63.61
60974;BME280;46846;51.528;5.076;2023-05-16T01:42:06;101431.31;;;10.93;63.49
60974;BME280;46846;51.528;5.076;2023-05-16T01:44:45;101435.78;;;10.91;63.74
60974;BME280;46846;51.528;5.076;2023-05-16T01:47:14;101436.66;;;10.93;63.41
60974;BME280;46846;51.528;5.076;2023-05-16T01:52:39;101442.13;;;10.87;63.27
60974;BME280;46846;51.528;5.076;2023-05-16T01:55:09;101446.59;;;10.85;63.41
60974;BME280;46846;51.528;5.076;2023-05-16T01:57:37;101447.50;;;10.84;63.10
60974;BME280;46846;51.528;5.076;2023-05-16T02:00:04;101445.78;;;10.81;63.30
60974;BME280;46846;51.528;5.076;2023-05-16T02:02:30;101452.09;;;10.78;63.54
60974;BME280;46846;51.528;5.076;2023-05-16T02:04:55;101453.97;;;10.75;63.47
60974;BME280;46846;51.528;5.076;2023-05-16T02:07:21;101453.91;;;10.76;63.28
60974;BME280;46846;51.528;5.076;2023-05-16T02:09:46;101448.66;;;10.73;63.54
60974;BME280;46846;51.528;5.076;2023-05-16T02:12:11;101458.41;;;10.74;63.24
60974;BME280;46846;51.528;5.076;2023-05-16T02:14:37;101461.22;;;10.68;63.66
60974;BME280;46846;51.528;5.076;2023-05-16T02:17:02;101468.47;;;10.63;63.75
60974;BME280;46846;51.528;5.076;2023-05-16T02:19:28;101468.47;;;10.63;63.54
60974;BME280;46846;51.528;5.076;2023-05-16T02:21:53;101470.25;;;10.61;63.43
60974;BME280;46846;51.528;5.076;2023-05-16T02:24:18;101467.59;;;10.61;63.34
60974;BME280;46846;51.528;5.076;2023-05-16T02:26:44;101466.78;;;10.57;63.48
60974;BME280;46846;51.528;5.076;2023-05-16T02:29:09;101467.69;;;10.58;63.69
60974;BME280;46846;51.528;5.076;2023-05-16T02:31:35;101465.03;;;10.58;63.34
60974;BME280;46846;51.528;5.076;2023-05-16T02:34:00;101463.34;;;10.53;63.53
60974;BME280;46846;51.528;5.076;2023-05-16T02:36:25;101466.09;;;10.49;63.76
60974;BME280;46846;51.528;5.076;2023-05-16T02:38:51;101467.91;;;10.48;63.46
60974;BME280;46846;51.528;5.076;2023-05-16T02:41:16;101464.38;;;10.46;63.68
60974;BME280;46846;51.528;5.076;2023-05-16T02:43:42;101470.66;;;10.44;63.50
60974;BME280;46846;51.528;5.076;2023-05-16T02:46:30;101466.22;;;10.44;63.58
60974;BME280;46846;51.528;5.076;2023-05-16T02:48:56;101468.84;;;10.46;63.49
60974;BME280;46846;51.528;5.076;2023-05-16T02:51:23;101468.91;;;10.43;63.54
60974;BME280;46846;51.528;5.076;2023-05-16T02:53:49;101477.88;;;10.38;63.42
60974;BME280;46846;51.528;5.076;2023-05-16T02:56:14;101472.56;;;10.37;63.63
60974;BME280;46846;51.528;5.076;2023-05-16T02:58:40;101477.88;;;10.37;63.55
60974;BME280;46846;51.528;5.076;2023-05-16T03:01:06;101476.19;;;10.33;63.45
60974;BME280;46846;51.528;5.076;2023-05-16T03:03:31;101485.94;;;10.34;63.49
60974;BME280;46846;51.528;5.076;2023-05-16T03:05:59;101493.03;;;10.35;63.38
60974;BME280;46846;51.528;5.076;2023-05-16T03:08:24;101493.97;;;10.32;63.30
60974;BME280;46846;51.528;5.076;2023-05-16T03:10:50;101492.22;;;10.31;63.17
60974;BME280;46846;51.528;5.076;2023-05-16T03:13:15;101494.91;;;10.30;63.37
60974;BME280;46846;51.528;5.076;2023-05-16T03:15:41;101494.06;;;10.28;63.30
60974;BME280;46846;51.528;5.076;2023-05-16T03:18:06;101506.56;;;10.24;63.44
60974;BME280;46846;51.528;5.076;2023-05-16T03:20:32;101498.56;;;10.25;63.39
60974;BME280;46846;51.528;5.076;2023-05-16T03:22:57;101491.50;;;10.23;63.53
60974;BME280;46846;51.528;5.076;2023-05-16T03:25:23;101500.44;;;10.20;63.56
60974;BME280;46846;51.528;5.076;2023-05-16T03:27:48;101497.78;;;10.20;63.35
60974;BME280;46846;51.528;5.076;2023-05-16T03:30:13;101499.63;;;10.17;63.34
60974;BME280;46846;51.528;5.076;2023-05-16T03:32:40;101502.31;;;10.15;63.50
60974;BME280;46846;51.528;5.076;2023-05-16T03:35:05;101501.47;;;10.13;63.25
60974;BME280;46846;51.528;5.076;2023-05-16T03:37:31;101500.59;;;10.12;63.31
60974;BME280;46846;51.528;5.076;2023-05-16T03:39:56;101511.28;;;10.11;63.38
60974;BME280;46846;51.528;5.076;2023-05-16T03:42:21;101509.56;;;10.08;63.59
60974;BME280;46846;51.528;5.076;2023-05-16T03:44:47;101514.81;;;10.10;63.22
60974;BME280;46846;51.528;5.076;2023-05-16T03:47:12;101507.81;;;10.07;63.32
60974;BME280;46846;51.528;5.076;2023-05-16T03:49:37;101505.19;;;10.04;63.30
60974;BME280;46846;51.528;5.076;2023-05-16T03:52:04;101509.59;;;10.05;63.22
60974;BME280;46846;51.528;5.076;2023-05-16T03:54:29;101510.50;;;10.06;63.36
60974;BME280;46846;51.528;5.076;2023-05-16T03:56:55;101517.66;;;10.02;63.35
60974;BME280;46846;51.528;5.076;2023-05-16T03:59:20;101523.91;;;9.99;63.44
60974;BME280;46846;51.528;5.076;2023-05-16T04:01:45;101521.25;;;9.99;63.37
60974;BME280;46846;51.528;5.076;2023-05-16T04:04:11;101530.16;;;9.97;63.22
60974;BME280;46846;51.528;5.076;2023-05-16T04:06:36;101528.41;;;9.96;63.33
60974;BME280;46846;51.528;5.076;2023-05-16T04:09:02;101524.88;;;9.95;63.33
60974;BME280;46846;51.528;5.076;2023-05-16T04:11:27;101528.50;;;9.93;63.32
60974;BME280;46846;51.528;5.076;2023-05-16T04:13:52;101533.84;;;9.90;63.28
60974;BME280;46846;51.528;5.076;2023-05-16T04:16:18;101534.78;;;9.89;63.20
60974;BME280;46846;51.528;5.076;2023-05-16T04:18:43;101547.22;;;9.88;63.38
60974;BME280;46846;51.528;5.076;2023-05-16T04:21:09;101541.88;;;9.88;63.29
60974;BME280;46846;51.528;5.076;2023-05-16T04:23:39;101551.63;;;9.88;63.40
60974;BME280;46846;51.528;5.076;2023-05-16T04:26:04;101540.16;;;9.85;63.12
60974;BME280;46846;51.528;5.076;2023-05-16T04:28:30;101549.00;;;9.86;63.40
60974;BME280;46846;51.528;5.076;2023-05-16T04:30:55;101554.38;;;9.83;63.26
60974;BME280;46846;51.528;5.076;2023-05-16T04:33:21;101545.47;;;9.85;63.31
60974;BME280;46846;51.528;5.076;2023-05-16T04:35:46;101559.69;;;9.83;63.39
60974;BME280;46846;51.528;5.076;2023-05-16T04:38:12;101564.94;;;9.86;63.14
60974;BME280;46846;51.528;5.076;2023-05-16T04:40:38;101563.28;;;9.82;63.27
60974;BME280;46846;51.528;5.076;2023-05-16T04:43:05;101568.50;;;9.85;63.10
60974;BME280;46846;51.528;5.076;2023-05-16T04:45:30;101564.13;;;9.82;63.18
60974;BME280;46846;51.528;5.076;2023-05-16T04:47:56;101563.22;;;9.83;63.25
60974;BME280;46846;51.528;5.076;2023-05-16T04:50:21;101577.50;;;9.78;63.07
60974;BME280;46846;51.528;5.076;2023-05-16T04:52:46;101573.03;;;9.80;62.96
60974;BME280;46846;51.528;5.076;2023-05-16T04:55:12;101569.56;;;9.76;63.16
60974;BME280;46846;51.528;5.076;2023-05-16T04:57:37;101572.19;;;9.78;63.24
60974;BME280;46846;51.528;5.076;2023-05-16T05:00:03;101577.50;;;9.78;63.22
60974;BME280;46846;51.528;5.076;2023-05-16T05:02:32;101574.00;;;9.77;63.26
60974;BME280;46846;51.528;5.076;2023-05-16T05:04:57;101577.50;;;9.78;63.03
60974;BME280;46846;51.528;5.076;2023-05-16T05:07:22;101575.75;;;9.77;63.22
60974;BME280;46846;51.528;5.076;2023-05-16T05:09:48;101589.03;;;9.78;62.96
60974;BME280;46846;51.528;5.076;2023-05-16T05:12:13;101583.66;;;9.80;63.21
60974;BME280;46846;51.528;5.076;2023-05-16T05:14:38;101585.38;;;9.84;62.93
60974;BME280;46846;51.528;5.076;2023-05-16T05:17:04;101580.13;;;9.81;63.15
60974;BME280;46846;51.528;5.076;2023-05-16T05:19:29;101584.53;;;9.82;63.07
60974;BME280;46846;51.528;5.076;2023-05-16T05:21:54;101588.97;;;9.81;63.11
60974;BME280;46846;51.528;5.076;2023-05-16T05:24:20;101581.00;;;9.80;62.83
60974;BME280;46846;51.528;5.076;2023-05-16T05:26:45;101585.44;;;9.81;63.19
60974;BME280;46846;51.528;5.076;2023-05-16T05:29:10;101590.81;;;9.78;63.09
60974;BME280;46846;51.528;5.076;2023-05-16T05:31:36;101589.84;;;9.82;63.20
60974;BME280;46846;51.528;5.076;2023-05-16T05:34:01;101588.94;;;9.83;63.05
60974;BME280;46846;51.528;5.076;2023-05-16T05:36:27;101596.91;;;9.84;63.08
60974;BME280;46846;51.528;5.076;2023-05-16T05:38:52;101599.69;;;9.77;63.31
60974;BME280;46846;51.528;5.076;2023-05-16T05:41:18;101597.84;;;9.80;63.21
60974;BME280;46846;51.528;5.076;2023-05-16T05:43:43;101600.47;;;9.82;63.33
60974;BME280;46846;51.528;5.076;2023-05-16T05:46:09;101603.09;;;9.83;63.09
60974;BME280;46846;51.528;5.076;2023-05-16T05:48:34;101601.41;;;9.81;63.43
60974;BME280;46846;51.528;5.076;2023-05-16T05:50:59;101602.25;;;9.81;63.26
60974;BME280;46846;51.528;5.076;2023-05-16T05:53:25;101605.84;;;9.79;63.41
60974;BME280;46846;51.528;5.076;2023-05-16T05:55:50;101608.38;;;9.85;63.41
60974;BME280;46846;51.528;5.076;2023-05-16T05:58:15;101609.19;;;9.89;63.31
60974;BME280;46846;51.528;5.076;2023-05-16T06:00:42;101610.22;;;9.81;63.12
60974;BME280;46846;51.528;5.076;2023-05-16T06:03:07;101616.44;;;9.82;63.30
60974;BME280;46846;51.528;5.076;2023-05-16T06:05:33;101615.44;;;9.86;63.26
60974;BME280;46846;51.528;5.076;2023-05-16T06:07:58;101619.03;;;9.85;63.33
60974;BME280;46846;51.528;5.076;2023-05-16T06:10:23;101617.28;;;9.82;63.45
60974;BME280;46846;51.528;5.076;2023-05-16T06:12:48;101616.34;;;9.85;63.26
60974;BME280;46846;51.528;5.076;2023-05-16T06:15:14;101619.84;;;9.87;63.13
60974;BME280;46846;51.528;5.076;2023-05-16T06:17:39;101620.84;;;9.83;63.34
60974;BME280;46846;51.528;5.076;2023-05-16T06:20:06;101620.69;;;9.91;63.29
60974;BME280;46846;51.528;5.076;2023-05-16T06:22:31;101623.25;;;9.95;63.38
60974;BME280;46846;51.528;5.076;2023-05-16T06:24:57;101628.63;;;9.94;63.57
60974;BME280;46846;51.528;5.076;2023-05-16T06:27:22;101631.19;;;9.97;63.58
60974;BME280;46846;51.528;5.076;2023-05-16T06:29:47;101628.44;;;10.02;63.45
60974;BME280;46846;51.528;5.076;2023-05-16T06:32:13;101631.91;;;10.05;63.11
60974;BME280;46846;51.528;5.076;2023-05-16T06:34:38;101626.59;;;10.07;63.59
60974;BME280;46846;51.528;5.076;2023-05-16T06:37:03;101631.78;;;10.13;63.69
60974;BME280;46846;51.528;5.076;2023-05-16T06:39:29;101630.84;;;10.16;63.77
60974;BME280;46846;51.528;5.076;2023-05-16T06:41:54;101629.88;;;10.20;63.92
60974;BME280;46846;51.528;5.076;2023-05-16T06:44:21;101640.41;;;10.24;63.96
60974;BME280;46846;51.528;5.076;2023-05-16T06:46:47;101643.03;;;10.28;63.86
60974;BME280;46846;51.528;5.076;2023-05-16T06:49:12;101638.53;;;10.30;63.95
60974;BME280;46846;51.528;5.076;2023-05-16T06:51:38;101641.09;;;10.34;63.95
60974;BME280;46846;51.528;5.076;2023-05-16T06:54:04;101643.66;;;10.39;63.97
60974;BME280;46846;51.528;5.076;2023-05-16T06:56:29;101636.59;;;10.38;63.88
60974;BME280;46846;51.528;5.076;2023-05-16T06:58:55;101647.19;;;10.41;64.26
60974;BME280;46846;51.528;5.076;2023-05-16T07:01:21;101633.84;;;10.44;63.78
60974;BME280;46846;51.528;5.076;2023-05-16T07:03:46;101637.34;;;10.46;64.00
60974;BME280;46846;51.528;5.076;2023-05-16T07:06:11;101638.13;;;10.51;64.01
60974;BME280;46846;51.528;5.076;2023-05-16T07:08:37;101638.06;;;10.55;64.06
60974;BME280;46846;51.528;5.076;2023-05-16T07:11:02;101636.19;;;10.58;63.89
60974;BME280;46846;51.528;5.076;2023-05-16T07:13:27;101636.16;;;10.61;64.27
60974;BME280;46846;51.528;5.076;2023-05-16T07:15:52;101634.34;;;10.62;64.25
60974;BME280;46846;51.528;5.076;2023-05-16T07:18:18;101641.25;;;10.71;63.48
60974;BME280;46846;51.528;5.076;2023-05-16T07:20:43;101644.81;;;10.71;64.39
60974;BME280;46846;51.528;5.076;2023-05-16T07:23:10;101646.47;;;10.75;64.29
60974;BME280;46846;51.528;5.076;2023-05-16T07:25:35;101642.84;;;10.79;64.42
60974;BME280;46846;51.528;5.076;2023-05-16T07:28:01;101648.00;;;10.87;63.92
60974;BME280;46846;51.528;5.076;2023-05-16T07:30:26;101644.38;;;10.90;64.29
60974;BME280;46846;51.528;5.076;2023-05-16T07:32:52;101649.56;;;10.96;64.21
60974;BME280;46846;51.528;5.076;2023-05-16T07:35:17;101653.03;;;11.00;64.15
60974;BME280;46846;51.528;5.076;2023-05-16T07:37:42;101653.84;;;11.03;63.94
60974;BME280;46846;51.528;5.076;2023-05-16T07:40:09;101654.53;;;11.12;63.60
60974;BME280;46846;51.528;5.076;2023-05-16T07:42:35;101655.31;;;11.17;62.51
60974;BME280;46846;51.528;5.076;2023-05-16T07:45:00;101656.13;;;11.20;64.38
60974;BME280;46846;51.528;5.076;2023-05-16T07:47:26;101655.91;;;11.28;64.35
60974;BME280;46846;51.528;5.076;2023-05-16T07:49:51;101657.53;;;11.35;64.00
60974;BME280;46846;51.528;5.076;2023-05-16T07:52:17;101654.81;;;11.39;63.99
60974;BME280;46846;51.528;5.076;2023-05-16T07:54:42;101654.69;;;11.43;64.00
60974;BME280;46846;51.528;5.076;2023-05-16T07:57:08;101656.31;;;11.49;63.62
60974;BME280;46846;51.528;5.076;2023-05-16T07:59:33;101642.91;;;11.52;63.83
60974;BME280;46846;51.528;5.076;2023-05-16T08:01:58;101648.03;;;11.60;62.94
60974;BME280;46846;51.528;5.076;2023-05-16T08:04:24;101640.81;;;11.65;63.95
60974;BME280;46846;51.528;5.076;2023-05-16T08:06:49;101644.16;;;11.73;63.78
60974;BME280;46846;51.528;5.076;2023-05-16T08:09:15;101646.59;;;11.81;64.03
60974;BME280;46846;51.528;5.076;2023-05-16T08:11:40;101633.13;;;11.86;63.66
60974;BME280;46846;51.528;5.076;2023-05-16T08:14:09;101640.97;;;11.92;63.48
60974;BME280;46846;51.528;5.076;2023-05-16T08:16:34;101645.19;;;12.01;62.06
60974;BME280;46846;51.528;5.076;2023-05-16T08:18:59;101645.91;;;12.08;63.91
60974;BME280;46846;51.528;5.076;2023-05-16T08:21:25;101649.31;;;12.14;63.39
60974;BME280;46846;51.528;5.076;2023-05-16T08:23:50;101658.13;;;12.16;63.70
60974;BME280;46846;51.528;5.076;2023-05-16T08:26:16;101655.31;;;12.23;63.80
60974;BME280;46846;51.528;5.076;2023-05-16T08:28:42;101659.56;;;12.28;63.57
60974;BME280;46846;51.528;5.076;2023-05-16T08:31:07;101662.19;;;12.32;63.47
60974;BME280;46846;51.528;5.076;2023-05-16T08:33:32;101651.41;;;12.35;63.48
60974;BME280;46846;51.528;5.076;2023-05-16T08:35:58;101652.16;;;12.40;63.54
60974;BME280;46846;51.528;5.076;2023-05-16T08:38:25;101655.47;;;12.48;63.33
60974;BME280;46846;51.528;5.076;2023-05-16T08:40:50;101645.56;;;12.52;63.23
60974;BME280;46846;51.528;5.076;2023-05-16T08:43:15;101646.25;;;12.58;63.40
60974;BME280;46846;51.528;5.076;2023-05-16T08:45:41;101646.03;;;12.66;63.67
60974;BME280;46846;51.528;5.076;2023-05-16T08:48:06;101645.78;;;12.74;63.23
60974;BME280;46846;51.528;5.076;2023-05-16T08:50:34;101648.25;;;12.82;62.93
60974;BME280;46846;51.528;5.076;2023-05-16T08:53:04;101642.78;;;12.85;62.68
60974;BME280;46846;51.528;5.076;2023-05-16T08:55:31;101633.66;;;12.92;62.70
60974;BME280;46846;51.528;5.076;2023-05-16T08:57:57;101642.50;;;12.94;62.61
60974;BME280;46846;51.528;5.076;2023-05-16T09:00:25;101644.91;;;13.04;61.97
60974;BME280;46846;51.528;5.076;2023-05-16T09:02:51;101642.06;;;13.08;61.42
60974;BME280;46846;51.528;5.076;2023-05-16T09:05:17;101646.50;;;13.09;62.15
60974;BME280;46846;51.528;5.076;2023-05-16T09:07:43;101649.97;;;13.11;62.01
60974;BME280;46846;51.528;5.076;2023-05-16T09:10:10;101653.41;;;13.15;62.12
60974;BME280;46846;51.528;5.076;2023-05-16T09:12:36;101652.31;;;13.22;61.27
60974;BME280;46846;51.528;5.076;2023-05-16T09:15:03;101649.41;;;13.30;61.29
60974;BME280;46846;51.528;5.076;2023-05-16T09:20:10;101649.81;;;13.45;61.35
60974;BME280;46846;51.528;5.076;2023-05-16T09:22:36;101657.75;;;13.48;61.40
60974;BME280;46846;51.528;5.076;2023-05-16T09:25:02;101656.66;;;13.53;60.77
60974;BME280;46846;51.528;5.076;2023-05-16T09:27:30;101653.94;;;13.55;60.88
60974;BME280;46846;51.528;5.076;2023-05-16T09:29:57;101662.72;;;13.59;55.75
60974;BME280;46846;51.528;5.076;2023-05-16T09:32:23;101663.66;;;13.58;58.91
60974;BME280;46846;51.528;5.076;2023-05-16T09:34:48;101666.00;;;13.67;59.92
60974;BME280;46846;51.528;5.076;2023-05-16T09:37:16;101659.66;;;13.71;59.89
60974;BME280;46846;51.528;5.076;2023-05-16T09:39:49;101667.47;;;13.77;59.73
60974;BME280;46846;51.528;5.076;2023-05-16T09:42:17;101649.38;;;13.84;57.33
60974;BME280;46846;51.528;5.076;2023-05-16T09:44:48;101666.22;;;13.88;60.11
60974;BME280;46846;51.528;5.076;2023-05-16T09:47:17;101660.66;;;13.94;59.16
60974;BME280;46846;51.528;5.076;2023-05-16T09:49:44;101672.16;;;13.96;59.72
60974;BME280;46846;51.528;5.076;2023-05-16T09:52:11;101672.16;;;13.96;59.86
60974;BME280;46846;51.528;5.076;2023-05-16T09:54:37;101666.63;;;14.01;59.53
60974;BME280;46846;51.528;5.076;2023-05-16T09:57:02;101661.06;;;14.07;58.06
60974;BME280;46846;51.528;5.076;2023-05-16T09:59:29;101658.13;;;14.15;58.51
60974;BME280;46846;51.528;5.076;2023-05-16T10:01:57;101652.44;;;14.24;56.29
60974;BME280;46846;51.528;5.076;2023-05-16T10:04:25;101660.28;;;14.29;57.75
60974;BME280;46846;51.528;5.076;2023-05-16T10:06:53;101660.16;;;14.32;59.04
60974;BME280;46846;51.528;5.076;2023-05-16T10:09:19;101658.25;;;14.35;58.91
60974;BME280;46846;51.528;5.076;2023-05-16T10:11:47;101661.69;;;14.39;59.16
60974;BME280;46846;51.528;5.076;2023-05-16T10:14:16;101648.94;;;14.46;59.34
60974;BME280;46846;51.528;5.076;2023-05-16T10:16:42;101656.81;;;14.51;59.01
60974;BME280;46846;51.528;5.076;2023-05-16T10:19:08;101656.00;;;14.48;60.10
60974;BME280;46846;51.528;5.076;2023-05-16T10:21:36;101653.25;;;14.50;57.67
60974;BME280;46846;51.528;5.076;2023-05-16T10:24:05;101653.94;;;14.55;59.14
60974;BME280;46846;51.528;5.076;2023-05-16T10:26:31;101658.25;;;14.59;58.65
60974;BME280;46846;51.528;5.076;2023-05-16T10:28:59;101645.56;;;14.65;58.50
60974;BME280;46846;51.528;5.076;2023-05-16T10:31:25;101648.94;;;14.70;58.79
60974;BME280;46846;51.528;5.076;2023-05-16T10:33:51;101641.63;;;14.75;57.37
60974;BME280;46846;51.528;5.076;2023-05-16T10:36:17;101647.66;;;14.80;57.68
60974;BME280;46846;51.528;5.076;2023-05-16T10:38:43;101652.09;;;14.81;58.77
60974;BME280;46846;51.528;5.076;2023-05-16T10:41:10;101651.84;;;14.87;58.44
60974;BME280;46846;51.528;5.076;2023-05-16T10:43:36;101657.09;;;14.90;58.31
60974;BME280;46846;51.528;5.076;2023-05-16T10:46:03;101649.88;;;14.93;56.12
60974;BME280;46846;51.528;5.076;2023-05-16T10:48:33;101653.50;;;14.92;58.11
60974;BME280;46846;51.528;5.076;2023-05-16T10:51:00;101658.72;;;14.95;57.93
60974;BME280;46846;51.528;5.076;2023-05-16T10:53:34;101665.81;;;14.96;58.26
60974;BME280;46846;51.528;5.076;2023-05-16T11:09:17;101664.28;;;15.12;58.57
60974;BME280;46846;51.528;5.076;2023-05-16T11:12:00;101655.16;;;15.16;58.38
60974;BME280;46846;51.528;5.076;2023-05-16T11:19:38;101652.00;;;15.29;57.62
60974;BME280;46846;51.528;5.076;2023-05-16T11:24:34;101668.38;;;15.21;57.16
60974;BME280;46846;51.528;5.076;2023-05-16T11:27:01;101662.22;;;15.19;58.67
60974;BME280;46846;51.528;5.076;2023-05-16T11:29:34;101648.47;;;15.27;57.50
60974;BME280;46846;51.528;5.076;2023-05-16T11:32:01;101662.63;;;15.30;57.52
60974;BME280;46846;51.528;5.076;2023-05-16T11:34:28;101654.47;;;15.34;57.37
60974;BME280;46846;51.528;5.076;2023-05-16T11:36:54;101652.84;;;15.29;58.05
60974;BME280;46846;51.528;5.076;2023-05-16T11:39:20;101655.34;;;15.34;56.82
60974;BME280;46846;51.528;5.076;2023-05-16T11:41:49;101657.22;;;15.32;57.87
60974;BME280;46846;51.528;5.076;2023-05-16T11:44:15;101663.38;;;15.34;56.71
60974;BME280;46846;51.528;5.076;2023-05-16T11:46:42;101672.38;;;15.33;57.01
60974;BME280;46846;51.528;5.076;2023-05-16T11:49:08;101662.28;;;15.40;56.44
60974;BME280;46846;51.528;5.076;2023-05-16T11:51:41;101646.84;;;15.45;57.06
60974;BME280;46846;51.528;5.076;2023-05-16T11:54:11;101660.25;;;15.45;56.88
60974;BME280;46846;51.528;5.076;2023-05-16T11:56:38;101659.25;;;15.48;56.33
60974;BME280;46846;51.528;5.076;2023-05-16T11:59:05;101669.03;;;15.49;57.53
60974;BME280;46846;51.528;5.076;2023-05-16T12:01:36;101665.25;;;15.54;56.82
60974;BME280;46846;51.528;5.076;2023-05-16T12:04:07;101663.44;;;15.55;56.93
60974;BME280;46846;51.528;5.076;2023-05-16T12:06:32;101665.13;;;15.57;57.43
60974;BME280;46846;51.528;5.076;2023-05-16T12:08:58;101663.44;;;15.55;58.11
60974;BME280;46846;51.528;5.076;2023-05-16T12:11:23;101671.22;;;15.61;57.36
60974;BME280;46846;51.528;5.076;2023-05-16T12:13:49;101667.53;;;15.64;55.72
60974;BME280;46846;51.528;5.076;2023-05-16T12:16:15;101661.38;;;15.62;57.69
60974;BME280;46846;51.528;5.076;2023-05-16T12:18:41;101662.28;;;15.61;57.71
60974;BME280;46846;51.528;5.076;2023-05-16T12:21:07;101662.22;;;15.62;57.56
60974;BME280;46846;51.528;5.076;2023-05-16T12:23:32;101660.03;;;15.72;57.29
60974;BME280;46846;51.528;5.076;2023-05-16T12:25:58;101667.03;;;15.76;56.78
60974;BME280;46846;51.528;5.076;2023-05-16T12:28:31;101661.38;;;15.82;56.76
60974;BME280;46846;51.528;5.076;2023-05-16T12:31:01;101662.03;;;15.88;56.51
60974;BME280;46846;51.528;5.076;2023-05-16T12:33:27;101660.31;;;15.86;57.02
60974;BME280;46846;51.528;5.076;2023-05-16T12:35:53;101673.78;;;15.85;57.04
60974;BME280;46846;51.528;5.076;2023-05-16T12:38:19;101671.09;;;15.85;56.68
60974;BME280;46846;51.528;5.076;2023-05-16T12:40:45;101670.09;;;15.88;56.50
60974;BME280;46846;51.528;5.076;2023-05-16T12:43:23;101676.47;;;15.85;56.62
60974;BME280;46846;51.528;5.076;2023-05-16T12:48:15;101680.50;;;15.75;56.66
60974;BME280;46846;51.528;5.076;2023-05-16T12:50:41;101672.97;;;15.83;55.49
60974;BME280;46846;51.528;5.076;2023-05-16T12:53:11;101668.56;;;15.82;55.59
60974;BME280;46846;51.528;5.076;2023-05-16T12:55:37;101675.22;;;15.94;56.13
60974;BME280;46846;51.528;5.076;2023-05-16T12:58:02;101674.16;;;15.98;56.52
60974;BME280;46846;51.528;5.076;2023-05-16T13:00:28;101675.81;;;16.01;56.11
60974;BME280;46846;51.528;5.076;2023-05-16T13:02:53;101673.81;;;16.06;55.98
60974;BME280;46846;51.528;5.076;2023-05-16T13:05:19;101687.84;;;15.92;56.48
60974;BME280;46846;51.528;5.076;2023-05-16T13:07:47;101677.50;;;16.03;56.58
60974;BME280;46846;51.528;5.076;2023-05-16T13:10:16;101676.50;;;16.06;56.27
60974;BME280;46846;51.528;5.076;2023-05-16T13:12:42;101686.50;;;16.02;55.63
60974;BME280;46846;51.528;5.076;2023-05-16T13:15:08;101675.34;;;16.11;53.33
60974;BME280;46846;51.528;5.076;2023-05-16T13:17:35;101667.81;;;16.20;49.01
60974;BME280;46846;51.528;5.076;2023-05-16T13:20:01;101688.66;;;16.15;55.37